Latest Weather Observations for Jervois

IDD60801

Issued at 10:31 am CST Friday 4 September 2015 (issued every 30 minutes, with the page automatically refreshed every 10 minutes)

About weather observations | Map of weather stations | Latest weather observations for NT | Other Formats
Station Details ID: 015602 Name: JERVOIS Lat: -22.95 Lon: 136.14 Height: 328.0 m
Data from the previous 72 hours. | See also: Recent months at Jervois
Date/Time
CST
Temp
°C
App
Temp
°C
Dew
Point
Rel
Hum
%
Delta-T
°C
Wind Press
QNH
hPa
Press
MSL
hPa
Rain
since 9 am
mm
Dir
 
Spd
km/h
Gust
km/h
Spd
kts
Gust
kts
04/10:30am 19.5 14.7 4.5 37 7.3 SE 19 26 10 14 1025.7 - 0.0
04/10:00am 18.7 13.3 4.7 39 6.8 SE 22 32 12 17 1025.9 - 0.0
04/09:30am 18.6 13.7 4.9 40 6.7 ESE 20 32 11 17 1025.8 - 0.0
04/09:00am 17.7 13.0 5.2 43 6.1 ESE 19 28 10 15 1025.7 1024.7 0.0
04/08:30am 15.8 11.9 5.2 49 5.1 ESE 15 24 8 13 1025.5 - 0.0
04/08:00am 14.1 10.2 5.3 55 4.2 SE 15 20 8 11 1025.2 - 0.0
04/07:30am 11.7 8.7 4.3 60 3.4 SSE 9 13 5 7 1024.9 - 0.0
04/07:00am 9.5 6.4 3.6 66 2.6 S 9 9 5 5 1024.7 - 0.0
04/06:30am 8.9 6.1 3.1 67 2.5 S 7 9 4 5 1024.5 - 0.0
04/06:00am 9.6 6.5 3.5 66 2.7 S 9 11 5 6 1024.0 1022.9 0.0
04/05:30am 9.7 6.5 3.1 63 2.9 SSE 9 11 5 6 1023.7 - 0.0
04/05:00am 9.7 6.8 2.5 61 3.1 S 7 9 4 5 1023.6 - 0.0
04/04:30am 10.3 7.3 2.2 57 3.5 S 7 11 4 6 1023.5 - 0.0
04/04:00am 10.4 7.0 1.7 55 3.7 S 9 11 5 6 1023.5 - 0.0
04/03:30am 10.2 7.1 1.5 55 3.7 S 7 11 4 6 1023.3 - 0.0
04/03:00am 10.7 7.6 1.5 53 3.9 S 7 9 4 5 1023.2 1022.2 0.0
04/02:30am 10.6 7.5 1.1 52 4.0 S 7 9 4 5 1023.4 - 0.0
04/02:00am 10.8 7.7 1.4 52 4.0 S 7 9 4 5 1023.3 - 0.0
04/01:30am 10.9 7.8 1.2 51 4.1 S 7 9 4 5 1023.6 - 0.0
04/01:00am 10.4 8.4 -0.1 48 4.3 CALM 0 7 0 4 1023.8 - 0.0
04/12:30am 11.8 8.7 1.6 49 4.4 S 7 9 4 5 1024.0 - 0.0
04/12:00am 12.5 9.0 1.1 45 4.9 S 9 11 5 6 1024.0 1023.0 0.0
 
Date/Time
CST
Temp
°C
App
Temp
°C
Dew
Point
Rel
Hum
%
Delta-T
°C
Wind Press
QNH
hPa
Press
MSL
hPa
Rain
since 9 am
mm
Dir
 
Spd
km/h
Gust
km/h
Spd
kts
Gust
kts
03/11:30pm 12.9 9.7 0.7 43 5.2 SSE 7 11 4 6 1023.9 - 0.0
03/11:00pm 13.5 10.3 0.7 41 5.5 S 7 9 4 5 1024.0 - 0.0
03/10:30pm 13.9 10.7 1.0 41 5.6 SSE 7 11 4 6 1023.9 - 0.0
03/10:00pm 14.7 11.1 0.6 38 6.1 SSE 9 13 5 7 1023.9 - 0.0
03/09:30pm 15.2 11.6 0.4 36 6.4 SSE 9 11 5 6 1023.9 - 0.0
03/09:00pm 15.6 11.9 0.1 34 6.7 SSE 9 13 5 7 1023.8 1022.8 0.0
03/08:30pm 16.0 12.7 0.4 34 6.8 SSE 7 9 4 5 1023.6 - 0.0
03/08:00pm 17.1 13.4 0.2 32 7.4 S 9 13 5 7 1023.3 - 0.0
03/07:30pm 17.8 14.1 -0.3 29 7.9 SSE 9 11 5 6 1022.7 - 0.0
03/07:00pm 18.4 15.1 0.1 29 8.1 S 7 9 4 5 1022.4 - 0.0
03/06:30pm 19.8 15.9 -1.3 24 9.2 S 9 17 5 9 1022.1 - 0.0
03/06:00pm 21.0 17.0 -2.0 21 10.0 S 9 15 5 8 1021.8 1020.7 0.0
03/05:30pm 21.7 16.9 -2.6 19 10.5 SSE 13 19 7 10 1021.6 - 0.0
03/05:00pm 21.9 17.1 -2.2 20 10.5 S 13 20 7 11 1021.5 - 0.0
03/04:30pm 22.2 16.9 -3.7 17 11.0 SSE 15 22 8 12 1021.6 - 0.0
03/04:00pm 22.4 17.5 -3.2 18 11.0 S 13 20 7 11 1021.5 - 0.0
03/03:30pm 22.1 18.4 -2.6 19 10.7 SE 7 19 4 10 1021.4 - 0.0
03/03:00pm 22.4 17.0 -4.7 16 11.3 SSE 15 24 8 13 1021.7 1020.6 0.0
03/02:30pm 22.1 16.8 -4.0 17 11.0 SSE 15 30 8 16 1021.9 - 0.0
03/02:00pm 22.0 15.8 -4.7 16 11.1 S 19 30 10 16 1022.3 - 0.0
03/01:30pm 20.9 14.7 -4.6 17 10.5 S 19 30 10 16 1022.7 - 0.0
03/01:00pm 20.7 14.5 -4.6 18 10.4 S 19 28 10 15 1023.2 - 0.0
03/12:30pm 20.5 14.2 -4.1 19 10.2 S 20 35 11 19 1023.6 - 0.0
03/12:00pm 20.6 14.1 -2.1 21 9.8 SSE 22 33 12 18 1024.0 1023.2 0.0
03/11:30am 19.4 12.9 -2.2 23 9.2 SSE 22 33 12 18 1024.6 - 0.0
03/11:00am 18.3 11.6 -0.9 27 8.4 SSE 24 37 13 20 1024.8 - 0.0
03/10:30am 18.0 11.2 -1.8 26 8.4 SSE 24 37 13 20 1025.0 - 0.0
03/10:00am 17.1 10.4 -0.9 29 7.7 S 24 33 13 18 1025.3 - 0.0
03/09:30am 16.1 9.0 -0.9 31 7.2 SSE 26 37 14 20 1025.4 - 0.0
03/09:00am 15.3 9.0 -0.8 33 6.8 SSE 22 33 12 18 1025.5 1024.5 0.0
03/08:30am 14.4 7.7 -1.3 34 6.5 SSE 24 33 13 18 1025.0 - 0.0
03/08:00am 12.6 8.1 -3.0 33 6.1 S 11 20 6 11 1024.4 - 0.0
03/07:30am 10.8 7.0 -3.8 35 5.5 SSW 7 13 4 7 1023.9 - 0.0
03/07:00am 9.2 5.3 -4.2 38 4.9 SSW 7 11 4 6 1023.5 - 0.0
03/06:30am 8.6 4.3 -5.2 37 4.9 SSW 9 13 5 7 1023.0 - 0.0
03/06:00am 8.6 4.6 -5.2 37 4.9 SSW 7 11 4 6 1022.6 1021.5 0.0
03/05:30am 9.7 5.8 -4.5 36 5.2 SSW 7 11 4 6 1022.3 - 0.0
03/05:00am 10.1 5.7 -5.9 32 5.7 SSW 9 13 5 7 1021.8 - 0.0
03/04:30am 10.1 6.1 -5.9 32 5.7 SSW 7 11 4 6 1021.6 - 0.0
03/04:00am 10.6 6.8 -5.8 31 5.9 S 6 9 3 5 1021.5 - 0.0
03/03:30am 11.4 7.5 -6.6 28 6.4 S 6 9 3 5 1021.2 - 0.0
03/03:00am 10.9 6.2 -9.2 23 6.7 SSW 9 11 5 6 1020.9 1019.9 0.0
03/02:30am 10.3 6.0 -9.5 24 6.5 SW 7 11 4 6 1020.9 - 0.0
03/02:00am 12.1 8.1 -8.0 24 7.0 SW 6 9 3 5 1020.9 - 0.0
03/01:30am 11.6 7.3 -9.2 22 7.0 SSW 7 9 4 5 1020.8 - 0.0
03/01:00am 13.5 9.1 -9.6 19 7.9 S 7 11 4 6 1020.8 - 0.0
03/12:30am 13.1 8.2 -11.4 17 8.0 SSW 9 11 5 6 1020.6 - 0.0
03/12:00am 13.8 10.7 -6.2 24 7.4 S 2 6 1 3 1020.8 1019.7 0.0
 
Date/Time
CST
Temp
°C
App
Temp
°C
Dew
Point
Rel
Hum
%
Delta-T
°C
Wind Press
QNH
hPa
Press
MSL
hPa
Rain
since 9 am
mm
Dir
 
Spd
km/h
Gust
km/h
Spd
kts
Gust
kts
02/11:30pm 14.4 10.3 -6.8 22 7.8 S 7 9 4 5 1020.7 - 0.0
02/11:00pm 14.1 10.0 -9.2 19 8.1 SSE 6 13 3 7 1020.7 - 0.0
02/10:30pm 13.9 9.9 -6.0 24 7.4 N 7 9 4 5 1020.8 - 0.0
02/10:00pm 16.1 11.8 -8.5 17 8.9 S 7 11 4 6 1020.4 - 0.0
02/09:30pm 17.6 12.5 -9.7 14 9.8 S 11 15 6 8 1020.2 - 0.0
02/09:00pm 18.3 12.9 -8.8 15 10.0 S 13 17 7 9 1019.8 1018.8 0.0
02/08:30pm 18.8 13.9 -7.4 16 10.0 S 11 17 6 9 1019.4 - 0.0
02/08:00pm 19.7 14.7 -7.7 15 10.5 S 11 15 6 8 1019.1 - 0.0
02/07:30pm 20.7 15.8 -7.1 15 10.9 S 11 15 6 8 1018.8 - 0.0
02/07:00pm 21.8 16.1 -7.3 13 11.5 S 15 24 8 13 1018.3 - 0.0
02/06:30pm 22.8 17.2 -6.6 13 11.9 S 15 22 8 12 1017.8 - 0.0
02/06:00pm 23.9 18.4 -5.1 14 12.2 S 15 24 8 13 1017.3 1016.3 0.0
02/05:30pm 24.7 19.0 -3.9 15 12.4 S 17 24 9 13 1016.9 - 0.0
02/05:00pm 25.2 19.9 -3.5 15 12.6 S 15 26 8 14 1016.6 - 0.0
02/04:30pm 25.3 19.7 -3.3 15 12.6 SSW 17 32 9 17 1016.6 - 0.0
02/04:00pm 25.2 19.2 -3.1 15 12.5 SSW 19 26 10 14 1016.5 - 0.0
02/03:30pm 25.2 19.5 -3.5 15 12.6 SSW 17 30 9 16 1016.5 - 0.0
02/03:00pm 25.5 20.6 -3.7 14 12.8 SW 13 32 7 17 1016.5 1015.4 0.0
02/02:30pm 24.9 19.2 -3.9 14 12.5 SW 17 28 9 15 1016.5 - 0.0
02/02:00pm 24.2 18.1 -3.8 15 12.1 SW 19 32 10 17 1016.7 - 0.0
02/01:30pm 23.8 18.1 -3.8 15 11.9 SSW 17 26 9 14 1017.0 - 0.0
02/01:00pm 23.6 18.0 -2.9 17 11.6 S 17 32 9 17 1017.3 - 0.0
02/12:00pm 21.5 14.6 -2.6 19 10.4 S 24 37 13 20 1018.1 1016.9 0.0
02/11:30am 20.7 13.5 -2.2 21 9.9 S 26 43 14 23 1018.6 - 0.0
02/11:00am 20.3 13.4 -2.7 21 9.8 S 24 37 13 20 1018.8 - 0.0
02/10:47am 20.0 12.3 -2.9 21 9.7 S 28 46 15 25 1018.7 - 0.0
02/10:30am 19.3 11.4 -1.9 24 9.1 S 30 46 16 25 1018.9 - 0.0
02/10:23am 19.1 11.5 -1.9 24 9.0 S 28 46 15 25 1018.9 - 0.0
02/10:00am 19.0 11.8 -2.1 24 9.0 S 26 41 14 22 1019.0 - 0.0
02/09:30am 18.9 12.4 2.4 33 7.7 S 26 41 14 22 1018.8 - 0.0
02/09:07am 17.8 11.1 3.4 38 6.8 S 28 46 15 25 1018.3 - 0.0
02/09:00am 18.4 11.4 4.0 38 6.9 S 30 43 16 23 1018.3 1017.1 0.0
02/08:30am 18.2 12.0 6.0 44 6.1 S 28 43 15 23 1017.5 - 0.0
02/08:00am 19.6 12.3 4.5 37 7.4 S 32 50 17 27 1016.6 - 0.0
02/07:32am 21.4 14.1 0.1 24 9.7 S 28 46 15 25 1015.7 - 0.0
02/07:30am 21.4 14.5 0.1 24 9.7 S 26 46 14 25 1015.7 - 0.0
02/07:00am 21.8 15.9 -0.6 22 10.1 SSW 20 32 11 17 1014.9 - 0.0
02/06:30am 22.0 16.4 -0.2 23 10.1 SSW 19 30 10 16 1014.2 - 0.0
02/06:00am 22.4 17.3 0.7 23 10.1 SW 17 28 9 15 1013.5 1012.4 0.0
02/05:30am 21.1 17.5 3.0 30 8.7 WSW 11 13 6 7 1012.7 - 0.0
02/05:00am 22.3 18.2 2.3 26 9.6 W 13 19 7 10 1012.1 - 0.0
02/04:30am 23.1 19.0 2.1 25 10.1 W 13 17 7 9 1011.6 - 0.0
02/04:00am 23.8 19.7 2.0 24 10.5 W 13 17 7 9 1011.3 - 0.0
02/03:30am 24.7 20.6 2.0 22 11.0 WNW 13 19 7 10 1011.1 - 0.0
02/03:00am 25.2 20.7 2.0 22 11.3 WNW 15 20 8 11 1011.1 1010.0 0.0
02/02:30am 25.3 20.6 1.1 20 11.6 WNW 15 22 8 12 1010.9 - 0.0
02/02:00am 24.2 20.9 2.5 24 10.6 NW 9 13 5 7 1010.9 - 0.0
02/01:30am 25.2 20.4 0.1 19 11.8 WSW 15 28 8 15 1011.1 - 0.0
02/01:00am 26.0 21.7 0.7 19 12.1 NW 13 17 7 9 1011.0 - 0.0
02/12:30am 25.7 21.2 0.0 18 12.1 NW 13 15 7 8 1011.3 - 0.0
02/12:00am 26.0 21.5 -0.1 18 12.3 NW 13 15 7 8 1011.4 1010.3 0.0
 
Date/Time
CST
Temp
°C
App
Temp
°C
Dew
Point
Rel
Hum
%
Delta-T
°C
Wind Press
QNH
hPa
Press
MSL
hPa
Rain
since 9 am
mm
Dir
 
Spd
km/h
Gust
km/h
Spd
kts
Gust
kts
01/11:30pm 25.3 21.7 0.3 19 11.8 NW 9 15 5 8 1011.6 - 0.0
01/11:00pm 25.4 21.3 0.1 19 11.9 NNW 11 15 6 8 1011.7 - 0.0
01/10:30pm 26.0 21.5 -0.5 17 12.4 NNW 13 19 7 10 1011.8 - 0.0
01/10:00pm 25.5 21.4 -0.5 18 12.1 NNW 11 15 6 8 1011.9 - 0.0
01/09:30pm 25.1 21.4 -0.1 19 11.8 NW 9 11 5 6 1011.9 - 0.0
01/09:00pm 25.6 21.9 -0.2 18 12.1 NW 9 13 5 7 1011.6 1010.4 0.0
01/08:30pm 25.5 21.9 0.7 19 11.8 NNW 9 13 5 7 1011.4 - 0.0
01/08:00pm 26.4 22.6 -0.8 17 12.7 NW 9 13 5 7 1011.1 - 0.0
01/07:30pm 27.6 23.3 -1.8 14 13.6 NW 11 13 6 7 1010.6 - 0.0
01/07:00pm 29.3 24.1 -2.9 12 14.8 WNW 15 20 8 11 1010.2 - 0.0
01/06:30pm 29.9 23.9 -3.2 11 15.2 NW 19 26 10 14 1009.9 - 0.0
01/06:00pm 30.7 24.4 -3.9 10 15.8 NW 20 28 11 15 1009.6 1008.5 0.0
01/05:30pm 31.4 23.1 -5.0 9 16.4 NW 30 39 16 21 1009.3 - 0.0
01/05:00pm 32.0 23.9 -6.5 8 17.0 NW 28 43 15 23 1009.2 - 0.0
01/04:42pm 31.9 23.9 -5.6 8 16.8 NW 28 46 15 25 1009.2 - 0.0
01/04:30pm 31.8 23.8 -5.4 9 16.7 NW 28 39 15 21 1009.2 - 0.0
01/04:14pm 32.1 24.1 -6.1 8 17.0 NW 28 46 15 25 1009.3 - 0.0
01/04:00pm 32.7 26.3 -4.6 9 17.1 NW 20 32 11 17 1009.4 - 0.0
01/03:30pm 32.3 24.4 -4.8 9 16.9 NNW 28 41 15 22 1009.5 - 0.0
01/03:00pm 31.5 24.0 -4.7 9 16.4 NNW 26 35 14 19 1010.0 1008.9 0.0
01/02:30pm 31.8 23.7 -6.7 8 16.9 NNW 28 41 15 22 1010.4 - 0.0
01/02:00pm 31.9 24.2 -7.0 7 17.0 NNW 26 39 14 21 1010.9 - 0.0
01/01:30pm 31.3 23.9 -7.3 8 16.7 NNW 24 30 13 16 1011.4 - 0.0
01/01:00pm 30.3 23.0 -6.5 9 16.0 N 24 33 13 18 1012.3 - 0.0
01/12:30pm 29.0 21.4 -10.2 7 15.8 N 24 37 13 20 1013.0 - 0.0
01/12:00pm 28.1 21.3 -8.8 8 15.1 N 20 33 11 18 1014.0 1012.9 0.0
01/11:30am 28.1 21.0 -8.8 8 15.1 N 22 33 12 18 1014.5 - 0.0
01/11:00am 26.7 19.1 -9.3 8 14.4 NNW 24 32 13 17 1015.2 - 0.0

Other Formats:

Comma delimited format used in spreadsheet applications
http://www.bom.gov.au/fwo/IDD60801/IDD60801.94327.axf

JavaScript Object Notation format (JSON) in row-major order
http://www.bom.gov.au/fwo/IDD60801/IDD60801.94327.json